Time;durP1;ratioP1;P1;durP2;ratioP2;P2;SDS_P1;SDS_P2;PMS_P1;PMS_P2;Temp;Humidity;BMP_temperature;BMP_pressure;BME280_temperature;BME280_humidity;BME280_pressure;Samples;Min_cycle;Max_cycle;Signal;HPM_P1;HPM_P2
2022/01/13 00:01:15;;;;;;;103.05;51.63;;;90.00;2176.00;;;;;;4994677;28;20485;-74
2022/01/13 00:03:41;;;;;;;97.55;48.80;;;89.90;2176.00;;;;;;4995697;28;20030;-76
2022/01/13 00:06:07;;;;;;;106.82;53.38;;;89.90;2176.00;;;;;;4995285;28;20030;-75
2022/01/13 00:08:32;;;;;;;109.72;55.17;;;89.80;2176.00;;;;;;5013878;28;20412;-75
2022/01/13 00:10:58;;;;;;;116.85;55.20;;;89.80;2176.00;;;;;;4995891;28;20540;-75
2022/01/13 00:13:31;;;;;;;110.00;52.83;;;89.70;2176.00;;;;;;5013552;28;20030;-75
2022/01/13 00:18:49;;;;;;;125.55;55.08;;;89.70;2176.00;;;;;;5011725;28;20087;-75
2022/01/13 00:21:39;;;;;;;116.38;61.05;;;89.70;2176.00;;;;;;5009895;28;20038;-75
2022/01/13 00:24:06;;;;;;;102.00;53.67;;;89.60;2201.60;;;;;;5013641;28;20384;-75
2022/01/13 00:26:34;;;;;;;105.20;52.42;;;89.60;2201.60;;;;;;4995852;28;20061;-76
2022/01/13 00:29:03;;;;;;;112.50;54.78;;;64.90;2201.60;;;;;;4996299;28;20045;-76
2022/01/13 00:31:33;;;;;;;108.53;53.03;;;64.90;2201.60;;;;;;4993300;28;20034;-75
2022/01/13 00:34:02;;;;;;;118.90;54.67;;;64.90;2201.60;;;;;;4996048;28;20038;-75
2022/01/13 00:36:38;;;;;;;101.95;54.08;;;64.80;2201.60;;;;;;5013529;28;20061;-75
2022/01/13 00:39:06;;;;;;;111.45;55.72;;;64.80;2201.60;;;;;;4995650;28;20037;-74
2022/01/13 00:41:33;;;;;;;108.85;52.33;;;64.80;2201.60;;;;;;4995833;28;20045;-74
2022/01/13 00:44:02;;;;;;;105.47;53.88;;;64.80;2201.60;;;;;;5012927;28;20109;-75
2022/01/13 00:46:39;;;;;;;112.45;49.75;;;64.80;2201.60;;;;;;5013323;28;20030;-75
2022/01/13 00:49:05;;;;;;;104.40;50.33;;;64.80;2201.60;;;;;;5010592;28;20037;-75
2022/01/13 00:51:31;;;;;;;99.05;51.92;;;64.80;2201.60;;;;;;5013042;28;20042;-76
2022/01/13 00:54:03;;;;;;;111.80;49.67;;;64.90;2201.60;;;;;;5010100;28;20469;-76
2022/01/13 00:56:29;;;;;;;104.80;51.25;;;64.90;2201.60;;;;;;5008865;28;20042;-75
2022/01/13 00:58:54;;;;;;;104.50;50.00;;;64.90;2201.60;;;;;;5009307;28;20126;-76
2022/01/13 01:01:20;;;;;;;101.47;51.60;;;64.90;2201.60;;;;;;4995282;28;20046;-76
2022/01/13 01:03:46;;;;;;;104.82;51.75;;;64.90;2201.60;;;;;;5012144;28;20040;-76
2022/01/13 01:06:12;;;;;;;106.10;54.10;;;64.90;2201.60;;;;;;5002934;28;20391;-75
2022/01/13 01:08:38;;;;;;;102.57;49.83;;;64.90;2201.60;;;;;;5013048;28;20565;-75
2022/01/13 01:11:05;;;;;;;95.20;46.50;;;64.90;2201.60;;;;;;5012760;28;20392;-74
2022/01/13 01:13:33;;;;;;;100.30;51.65;;;64.90;2201.60;;;;;;4994548;28;20042;-76
2022/01/13 01:16:04;;;;;;;92.47;48.17;;;64.80;2201.60;;;;;;4995217;28;20046;-76
2022/01/13 01:18:40;;;;;;;92.80;46.85;;;64.90;2201.60;;;;;;4994971;28;20038;-75
2022/01/13 01:23:54;;;;;;;98.07;48.22;;;64.80;2201.60;;;;;;5012508;28;20128;-74
2022/01/13 01:26:48;;;;;;;93.28;51.92;;;64.80;2201.60;;;;;;4985716;28;20080;-74
2022/01/13 01:29:39;;;;;;;105.53;51.33;;;64.80;2201.60;;;;;;5009594;28;20044;-73
2022/01/13 01:32:10;;;;;;;111.95;51.75;;;64.80;2201.60;;;;;;4986624;28;20439;-74
2022/01/13 01:34:56;;;;;;;105.28;49.03;;;64.90;2201.60;;;;;;5011534;28;20511;-74
2022/01/13 01:37:27;;;;;;;106.45;53.45;;;64.80;2201.60;;;;;;4991286;28;20041;-74
2022/01/13 01:39:55;;;;;;;107.72;55.17;;;64.90;2201.60;;;;;;4994077;28;20033;-74
2022/01/13 01:42:23;;;;;;;112.97;55.97;;;64.90;2201.60;;;;;;5011763;28;20074;-75
2022/01/13 01:44:54;;;;;;;108.88;55.25;;;89.60;2201.60;;;;;;4994390;28;20030;-74
2022/01/13 01:47:22;;;;;;;107.47;54.00;;;64.90;2201.60;;;;;;4994780;28;20048;-73
2022/01/13 01:49:53;;;;;;;116.32;56.97;;;89.60;2201.60;;;;;;5011668;28;20129;-74
2022/01/13 01:52:20;;;;;;;119.85;61.10;;;89.60;2201.60;;;;;;4994417;28;20120;-73
2022/01/13 01:54:47;;;;;;;112.20;58.30;;;89.60;2201.60;;;;;;5011664;28;20038;-74
2022/01/13 01:57:14;;;;;;;127.75;59.42;;;89.70;2176.00;;;;;;5012182;28;20045;-74
2022/01/13 01:59:42;;;;;;;143.27;59.20;;;89.70;2176.00;;;;;;5011811;28;20084;-74
2022/01/13 02:02:10;;;;;;;118.57;60.42;;;89.70;2176.00;;;;;;4993989;28;20034;-74
2022/01/13 02:04:36;;;;;;;120.10;60.08;;;89.70;2176.00;;;;;;4983764;28;20711;-73
2022/01/13 02:07:05;;;;;;;119.93;62.22;;;89.70;2176.00;;;;;;5006457;28;20034;-74
2022/01/13 02:09:34;;;;;;;110.85;57.03;;;89.70;2176.00;;;;;;5012256;28;20114;-74
2022/01/13 02:12:05;;;;;;;127.53;64.60;;;89.60;2201.60;;;;;;5011690;28;20492;-73
2022/01/13 02:14:34;;;;;;;130.73;58.50;;;89.60;2201.60;;;;;;5012232;28;20038;-74
2022/01/13 02:17:07;;;;;;;124.18;58.42;;;89.60;2201.60;;;;;;5011802;28;20030;-74
2022/01/13 02:19:39;;;;;;;124.43;62.53;;;89.60;2201.60;;;;;;5012112;28;20030;-74
2022/01/13 02:22:05;;;;;;;124.97;60.28;;;89.60;2201.60;;;;;;5010941;28;20124;-74
2022/01/13 02:24:33;;;;;;;116.85;56.60;;;89.70;2176.00;;;;;;4993383;28;20038;-74
2022/01/13 02:26:59;;;;;;;118.93;59.03;;;89.70;2176.00;;;;;;4994596;28;20452;-74
2022/01/13 02:29:25;;;;;;;118.68;58.47;;;89.60;2201.60;;;;;;4994211;28;20029;-75
2022/01/13 02:31:52;;;;;;;123.95;61.38;;;89.70;2176.00;;;;;;4994318;28;20515;-74
2022/01/13 02:34:18;;;;;;;114.78;61.70;;;89.70;2176.00;;;;;;5011556;28;20034;-74
2022/01/13 02:36:45;;;;;;;114.57;58.45;;;89.80;2176.00;;;;;;5011965;28;20393;-73
2022/01/13 02:39:11;;;;;;;106.53;56.47;;;89.90;2176.00;;;;;;4993906;28;20042;-73
2022/01/13 02:41:36;;;;;;;122.13;57.92;;;89.90;2176.00;;;;;;4993821;28;20069;-73
2022/01/13 02:44:11;;;;;;;124.53;57.22;;;89.90;2176.00;;;;;;5011662;28;20113;-74
2022/01/13 02:49:08;;;;;;;109.82;55.05;;;89.90;2176.00;;;;;;5011802;28;20902;-73
2022/01/13 02:51:35;;;;;;;105.43;53.97;;;89.80;2176.00;;;;;;4993897;28;20493;-73
2022/01/13 02:54:02;;;;;;;109.68;55.22;;;89.80;2176.00;;;;;;4994133;28;20050;-75
2022/01/13 02:56:28;;;;;;;120.57;56.40;;;89.80;2176.00;;;;;;5011429;28;20531;-74
2022/01/13 02:58:54;;;;;;;136.70;60.35;;;89.80;2176.00;;;;;;4994261;28;20392;-73
2022/01/13 03:01:20;;;;;;;109.38;57.97;;;89.90;2176.00;;;;;;4993586;28;20049;-74
2022/01/13 03:03:46;;;;;;;113.93;60.05;;;90.00;2176.00;;;;;;5011398;28;20026;-73
2022/01/13 03:06:15;;;;;;;125.25;64.20;;;90.10;2176.00;;;;;;5011713;28;20056;-74
2022/01/13 03:08:46;;;;;;;115.70;62.05;;;90.20;2176.00;;;;;;4993788;28;20030;-74
2022/01/13 03:11:13;;;;;;;121.78;62.85;;;90.20;2176.00;;;;;;4994444;28;20037;-73
2022/01/13 03:13:39;;;;;;;136.43;68.15;;;90.20;2176.00;;;;;;5015038;28;20546;-73
2022/01/13 03:16:10;;;;;;;127.40;61.60;;;90.20;2176.00;;;;;;5015299;28;20080;-75
2022/01/13 03:18:37;;;;;;;116.45;61.05;;;90.20;2176.00;;;;;;4996563;28;20034;-74
2022/01/13 03:21:03;;;;;;;125.03;64.20;;;90.30;2176.00;;;;;;4997078;28;20492;-73
2022/01/13 03:23:29;;;;;;;124.53;60.50;;;90.20;2176.00;;;;;;5015125;28;20091;-74
2022/01/13 03:25:55;;;;;;;114.95;57.63;;;90.30;2176.00;;;;;;4996355;28;20124;-74
2022/01/13 03:29:22;;;;;;;116.47;60.10;;;90.40;2176.00;;;;;;5013842;28;20509;-74
2022/01/13 03:31:16;;;;;;;114.47;59.70;;;90.30;2176.00;;;;;;4992809;28;20161;-74
2022/01/13 03:33:41;;;;;;;128.48;65.35;;;90.40;2176.00;;;;;;5014496;28;20113;-75
2022/01/13 03:36:07;;;;;;;135.30;63.45;;;90.50;2176.00;;;;;;5014854;28;20472;-74
2022/01/13 03:38:33;;;;;;;136.60;67.53;;;90.50;2176.00;;;;;;5014263;28;20033;-74
2022/01/13 03:40:58;;;;;;;122.80;59.00;;;90.50;2176.00;;;;;;5014376;28;20042;-74
2022/01/13 03:43:24;;;;;;;124.80;60.20;;;115.20;2176.00;;;;;;5013627;28;20026;-74
2022/01/13 03:45:50;;;;;;;131.02;60.45;;;115.20;2176.00;;;;;;4995037;28;20500;-73
2022/01/13 03:48:16;;;;;;;123.10;58.88;;;115.20;2176.00;;;;;;5014265;28;20030;-74
2022/01/13 03:50:43;;;;;;;126.00;60.60;;;115.20;2176.00;;;;;;5014571;28;20057;-74
2022/01/13 03:53:27;;;;;;;123.28;61.67;;;115.20;2176.00;;;;;;4996464;28;20146;-73
2022/01/13 03:56:30;;;;;;;114.80;60.05;;;115.20;2176.00;;;;;;5012405;28;20116;-74
2022/01/13 03:59:33;;;;;;;114.78;54.58;;;115.30;2176.00;;;;;;4996200;28;20030;-74
2022/01/13 04:02:06;;;;;;;125.60;57.75;;;115.30;2176.00;;;;;;5012447;28;20084;-74
2022/01/13 04:04:50;;;;;;;103.60;57.92;;;115.20;2176.00;;;;;;5014265;28;20058;-74
2022/01/13 04:07:34;;;;;;;128.43;62.92;;;90.50;2176.00;;;;;;4996333;28;20431;-74
2022/01/13 04:10:03;;;;;;;132.98;67.13;;;90.50;2176.00;;;;;;5013929;28;20033;-74
2022/01/13 04:12:29;;;;;;;139.35;61.83;;;90.50;2176.00;;;;;;4996570;28;20038;-74
2022/01/13 04:14:58;;;;;;;119.88;63.42;;;90.40;2176.00;;;;;;5013614;28;20034;-74
2022/01/13 04:17:25;;;;;;;128.77;63.25;;;90.40;2176.00;;;;;;4996663;28;20037;-74
2022/01/13 04:19:51;;;;;;;117.93;63.05;;;90.40;2176.00;;;;;;5013694;28;20484;-74
2022/01/13 04:22:18;;;;;;;134.07;66.35;;;90.40;2176.00;;;;;;5013355;28;20061;-73
2022/01/13 04:24:47;;;;;;;136.90;64.05;;;90.40;2176.00;;;;;;4994693;28;20129;-73
2022/01/13 04:27:43;;;;;;;127.50;62.22;;;90.40;2176.00;;;;;;4995833;28;20116;-73
2022/01/13 04:30:23;;;;;;;123.32;59.42;;;90.50;2176.00;;;;;;4994749;28;20053;-73
2022/01/13 04:32:49;;;;;;;120.60;57.72;;;115.20;2176.00;;;;;;5013648;28;20095;-73
2022/01/13 04:35:16;;;;;;;116.20;59.03;;;115.30;2176.00;;;;;;4995707;28;20034;-73
2022/01/13 04:37:42;;;;;;;119.20;57.83;;;115.30;2176.00;;;;;;5013779;28;20096;-73
2022/01/13 04:40:11;;;;;;;114.55;62.63;;;115.40;2176.00;;;;;;4995613;28;20435;-73
2022/01/13 04:42:41;;;;;;;111.75;61.45;;;115.40;2176.00;;;;;;4995672;28;20444;-72
2022/01/13 04:45:07;;;;;;;120.68;57.42;;;115.50;2176.00;;;;;;5013206;28;20033;-73
2022/01/13 04:47:33;;;;;;;122.28;57.03;;;115.50;2176.00;;;;;;5013265;28;20034;-73
2022/01/13 04:49:59;;;;;;;125.45;60.50;;;115.40;2176.00;;;;;;5013066;28;20037;-74
2022/01/13 04:52:25;;;;;;;117.53;58.08;;;115.30;2176.00;;;;;;4995260;28;20034;-73
2022/01/13 04:54:50;;;;;;;118.07;58.03;;;115.20;2176.00;;;;;;5012407;28;20046;-73
2022/01/13 04:57:17;;;;;;;119.13;59.60;;;115.20;2176.00;;;;;;4994827;28;20038;-73
2022/01/13 04:59:44;;;;;;;112.90;57.28;;;115.20;2176.00;;;;;;4995474;28;20034;-73
2022/01/13 05:02:11;;;;;;;110.97;55.55;;;115.20;2176.00;;;;;;4995007;28;20499;-69
2022/01/13 05:04:36;;;;;;;115.28;53.33;;;115.20;2176.00;;;;;;4998187;28;20497;-73
2022/01/13 05:07:02;;;;;;;127.57;58.85;;;90.50;2176.00;;;;;;5012786;28;20029;-73
2022/01/13 05:09:28;;;;;;;158.02;70.65;;;90.50;2176.00;;;;;;5011944;28;20034;-73
2022/01/13 05:11:54;;;;;;;170.88;83.20;;;115.30;2176.00;;;;;;5012811;28;20045;-73
2022/01/13 05:14:20;;;;;;;168.57;80.38;;;115.30;2176.00;;;;;;5013104;28;20092;-73
2022/01/13 05:17:01;;;;;;;176.00;81.25;;;115.40;2176.00;;;;;;5012618;28;20026;-73
2022/01/13 05:19:38;;;;;;;138.52;64.25;;;115.50;2176.00;;;;;;5007219;28;20452;-73
2022/01/13 05:24:36;;;;;;;133.98;60.97;;;115.50;2176.00;;;;;;5012033;28;20092;-73
2022/01/13 05:27:02;;;;;;;123.85;60.80;;;115.50;2176.00;;;;;;5012216;28;20030;-73
2022/01/13 05:29:28;;;;;;;143.95;68.97;;;115.40;2176.00;;;;;;5012026;28;20025;-73
2022/01/13 05:31:53;;;;;;;124.45;62.83;;;115.50;2176.00;;;;;;5010826;28;20113;-73
2022/01/13 05:34:19;;;;;;;121.22;61.80;;;115.50;2176.00;;;;;;5011160;28;20034;-73
2022/01/13 05:36:45;;;;;;;121.57;58.72;;;115.50;2176.00;;;;;;5010688;28;20117;-73
2022/01/13 05:39:11;;;;;;;112.05;56.13;;;115.40;2176.00;;;;;;4994250;28;20049;-73
2022/01/13 05:41:38;;;;;;;114.72;62.30;;;115.40;2176.00;;;;;;4994536;28;20048;-75
2022/01/13 05:44:04;;;;;;;148.40;68.65;;;115.50;2176.00;;;;;;5011252;28;20034;-73
2022/01/13 05:46:30;;;;;;;150.90;71.10;;;115.50;2176.00;;;;;;5012075;28;20026;-74
2022/01/13 05:48:56;;;;;;;152.90;78.97;;;115.60;2176.00;;;;;;5010989;28;20121;-73
2022/01/13 05:51:25;;;;;;;136.00;61.85;;;115.60;2176.00;;;;;;4993861;28;20038;-74
2022/01/13 05:53:51;;;;;;;123.05;60.60;;;115.70;2176.00;;;;;;4994500;28;20810;-73
2022/01/13 05:56:17;;;;;;;121.10;61.13;;;115.70;2176.00;;;;;;5011964;28;20053;-73
2022/01/13 05:58:42;;;;;;;125.32;59.90;;;115.70;2176.00;;;;;;4994381;28;20053;-73
2022/01/13 06:01:08;;;;;;;118.15;53.75;;;115.60;2176.00;;;;;;5012037;28;20121;-74
2022/01/13 06:03:34;;;;;;;118.85;57.40;;;115.50;2176.00;;;;;;5011908;28;20030;-74
2022/01/13 06:06:00;;;;;;;138.90;69.93;;;115.60;2176.00;;;;;;4994104;28;20397;-74
2022/01/13 06:08:26;;;;;;;141.45;64.15;;;115.70;2176.00;;;;;;4994335;28;20404;-74
2022/01/13 06:10:51;;;;;;;125.07;63.13;;;115.80;2176.00;;;;;;4994596;28;20038;-75
2022/01/13 06:13:17;;;;;;;130.98;65.55;;;115.80;2176.00;;;;;;4993783;28;20037;-75
2022/01/13 06:15:43;;;;;;;131.00;66.45;;;115.80;2176.00;;;;;;4994821;28;20041;-75
2022/01/13 06:18:14;;;;;;;149.60;67.82;;;115.80;2176.00;;;;;;5011915;28;20092;-75
2022/01/13 06:20:40;;;;;;;126.90;62.30;;;115.80;2176.00;;;;;;5011873;28;20037;-75
2022/01/13 06:23:07;;;;;;;161.63;71.40;;;115.70;2176.00;;;;;;4994580;28;20034;-75
2022/01/13 06:25:35;;;;;;;176.75;83.25;;;115.70;2176.00;;;;;;5010437;28;20038;-74
2022/01/13 06:28:01;;;;;;;154.98;73.40;;;115.60;2176.00;;;;;;4994498;28;20034;-74
2022/01/13 06:30:27;;;;;;;145.07;69.60;;;115.50;2176.00;;;;;;4993934;28;20034;-74
2022/01/13 06:32:53;;;;;;;144.90;72.70;;;115.60;2176.00;;;;;;4991058;28;20034;-75
2022/01/13 06:35:18;;;;;;;127.60;65.43;;;115.70;2176.00;;;;;;4990853;28;20067;-75
2022/01/13 06:37:45;;;;;;;136.02;65.93;;;115.60;2176.00;;;;;;4992682;28;20054;-75
2022/01/13 06:40:12;;;;;;;137.38;69.95;;;115.60;2176.00;;;;;;4992034;28;20064;-75
2022/01/13 06:42:38;;;;;;;163.30;78.25;;;115.80;2176.00;;;;;;4990793;28;20030;-75
2022/01/13 06:45:06;;;;;;;164.05;80.47;;;115.80;2176.00;;;;;;4992303;28;20018;-75
2022/01/13 06:47:32;;;;;;;166.45;89.30;;;115.80;2176.00;;;;;;4994216;28;20030;-74
2022/01/13 06:49:57;;;;;;;155.98;84.55;;;115.90;2176.00;;;;;;4994878;28;20031;-74
2022/01/13 06:52:23;;;;;;;166.73;91.50;;;115.90;2176.00;;;;;;5014753;28;20088;-74
2022/01/13 06:54:51;;;;;;;222.95;111.63;;;115.80;2176.00;;;;;;5000903;28;20084;-75
2022/01/13 06:57:17;;;;;;;214.95;102.70;;;115.70;2176.00;;;;;;4996863;28;20046;-74
2022/01/13 06:59:43;;;;;;;207.52;105.80;;;115.60;2176.00;;;;;;4996079;28;20041;-74
2022/01/13 07:02:09;;;;;;;211.07;102.97;;;115.50;2176.00;;;;;;5000915;28;20034;-74
2022/01/13 07:04:35;;;;;;;210.38;105.10;;;115.50;2176.00;;;;;;5013117;28;20025;-74
2022/01/13 07:07:00;;;;;;;237.45;119.18;;;115.40;2176.00;;;;;;4994277;28;20034;-75
2022/01/13 07:09:27;;;;;;;198.90;101.10;;;115.30;2176.00;;;;;;4994120;28;20113;-75
2022/01/13 07:11:52;;;;;;;238.38;122.38;;;115.20;2176.00;;;;;;5001128;28;20037;-75
2022/01/13 07:14:18;;;;;;;213.48;113.00;;;90.50;2176.00;;;;;;5003510;28;20042;-74
2022/01/13 07:16:45;;;;;;;157.50;84.85;;;90.30;2176.00;;;;;;5004561;28;20484;-75
2022/01/13 07:19:12;;;;;;;147.43;75.07;;;90.30;2176.00;;;;;;5003829;28;20038;-74
2022/01/13 07:21:42;;;;;;;132.13;65.82;;;90.20;2176.00;;;;;;5003810;28;20042;-75
2022/01/13 07:24:08;;;;;;;133.40;67.63;;;90.20;2176.00;;;;;;5003193;28;20055;-75
2022/01/13 07:26:33;;;;;;;140.90;67.68;;;90.00;2176.00;;;;;;5003399;28;20038;-75
2022/01/13 07:28:59;;;;;;;132.63;66.68;;;89.90;2176.00;;;;;;5005064;28;20085;-74
2022/01/13 07:31:25;;;;;;;129.25;62.50;;;89.80;2176.00;;;;;;5008738;28;20067;-74
2022/01/13 07:33:51;;;;;;;126.18;61.67;;;89.70;2176.00;;;;;;5009141;28;20041;-74
2022/01/13 07:36:17;;;;;;;135.82;66.15;;;89.60;2201.60;;;;;;4995397;28;20045;-74
2022/01/13 07:38:43;;;;;;;103.68;53.70;;;64.90;2201.60;;;;;;5018826;28;20042;-75
2022/01/13 07:41:08;;;;;;;115.75;56.38;;;64.80;2201.60;;;;;;5007914;28;20042;-76
2022/01/13 07:43:35;;;;;;;119.65;58.65;;;64.70;2201.60;;;;;;4996001;28;20048;-76
2022/01/13 07:46:01;;;;;;;109.82;55.97;;;64.60;2201.60;;;;;;4992863;28;20397;-75
2022/01/13 07:48:26;;;;;;;113.88;56.53;;;64.50;2201.60;;;;;;5005058;28;20389;-74
2022/01/13 07:50:53;;;;;;;106.40;56.90;;;64.50;2201.60;;;;;;4990825;28;20122;-75
2022/01/13 07:53:19;;;;;;;107.95;55.78;;;64.40;2201.60;;;;;;5007830;28;20120;-76
2022/01/13 07:55:45;;;;;;;114.80;56.53;;;64.20;2201.60;;;;;;4996649;28;20041;-76
2022/01/13 07:58:11;;;;;;;108.60;54.05;;;64.20;2201.60;;;;;;5013141;28;20101;-76
2022/01/13 08:00:37;;;;;;;107.30;50.83;;;64.10;2201.60;;;;;;4996114;28;20088;-75
2022/01/13 08:03:03;;;;;;;99.57;51.00;;;64.00;2201.60;;;;;;4995207;28;20432;-75
2022/01/13 08:05:30;;;;;;;92.13;48.83;;;64.00;2201.60;;;;;;5013445;28;20037;-75
2022/01/13 08:07:56;;;;;;;98.07;47.45;;;39.30;2201.60;;;;;;5013302;28;20038;-75
2022/01/13 08:10:22;;;;;;;89.63;47.10;;;39.30;2201.60;;;;;;4995778;28;20103;-75
2022/01/13 08:12:48;;;;;;;94.65;45.67;;;39.20;2201.60;;;;;;5006245;28;20811;-75
2022/01/13 08:15:14;;;;;;;86.10;45.60;;;39.20;2201.60;;;;;;5012984;28;20473;-75
2022/01/13 08:20:33;;;;;;;77.82;43.80;;;39.10;2201.60;;;;;;5012248;28;20397;-76
2022/01/13 08:23:00;;;;;;;83.22;42.35;;;39.00;2201.60;;;;;;5013161;28;20088;-79
2022/01/13 08:25:26;;;;;;;90.95;49.13;;;39.00;2201.60;;;;;;4994771;28;20681;-79
2022/01/13 08:27:53;;;;;;;90.63;49.28;;;38.90;2201.60;;;;;;4995729;28;20076;-77
2022/01/13 08:30:20;;;;;;;91.00;45.22;;;38.80;2201.60;;;;;;4998481;28;20038;-78
2022/01/13 08:32:45;;;;;;;89.65;48.92;;;38.70;2201.60;;;;;;4995804;28;20042;-77
2022/01/13 08:35:12;;;;;;;87.55;48.00;;;38.70;2201.60;;;;;;4995587;28;20883;-76
2022/01/13 08:37:39;;;;;;;88.00;44.03;;;38.60;2201.60;;;;;;4995205;28;20814;-77
2022/01/13 08:40:08;;;;;;;83.78;45.20;;;38.70;2201.60;;;;;;4995606;28;20064;-77
2022/01/13 08:42:35;;;;;;;86.85;44.50;;;38.60;2201.60;;;;;;4994856;28;20476;-77
2022/01/13 08:45:03;;;;;;;80.90;42.10;;;38.60;2201.60;;;;;;4995157;28;20045;-77
2022/01/13 08:47:29;;;;;;;79.30;41.70;;;38.50;2201.60;;;;;;5009565;28;20108;-77
2022/01/13 08:49:55;;;;;;;83.72;44.13;;;38.40;2201.60;;;;;;4994908;28;20488;-77
2022/01/13 08:52:20;;;;;;;80.25;41.28;;;38.40;2201.60;;;;;;4994509;28;20632;-77
2022/01/13 08:54:46;;;;;;;86.20;43.20;;;13.70;2201.60;;;;;;4994824;28;20053;-77
2022/01/13 08:57:13;;;;;;;86.35;42.38;;;13.60;2201.60;;;;;;4993613;28;20038;-77
2022/01/13 08:59:39;;;;;;;91.65;50.00;;;13.50;2201.60;;;;;;4993613;28;20092;-76
2022/01/13 09:02:05;;;;;;;84.18;43.63;;;13.30;2201.60;;;;;;5011639;28;20481;-76
2022/01/13 09:04:31;;;;;;;77.25;42.63;;;13.20;2201.60;;;;;;4994172;28;20504;-76
2022/01/13 09:06:56;;;;;;;81.95;40.88;;;13.00;2201.60;;;;;;4994579;28;20463;-78
2022/01/13 09:09:22;;;;;;;72.00;38.80;;;13.10;2201.60;;;;;;4994120;28;20091;-78
2022/01/13 09:11:48;;;;;;;76.30;39.97;;;13.10;2201.60;;;;;;4994826;28;20030;-78
2022/01/13 09:14:16;;;;;;;79.63;38.97;;;13.10;2201.60;;;;;;5011496;28;20080;-78
2022/01/13 09:16:42;;;;;;;75.15;42.13;;;13.00;2201.60;;;;;;4993830;28;20058;-78
2022/01/13 09:19:12;;;;;;;72.28;39.78;;;12.90;2201.60;;;;;;5006146;28;20493;-79
2022/01/13 09:21:42;;;;;;;83.75;43.97;;;0.00;2201.60;;;;;;4994121;28;20092;-79
2022/01/13 09:24:15;;;;;;;94.35;47.83;;;0.20;2201.60;;;;;;4994227;28;20041;-80
2022/01/13 09:26:42;;;;;;;78.22;43.88;;;0.30;2201.60;;;;;;4986644;28;20571;-79
2022/01/13 09:29:09;;;;;;;82.38;41.63;;;0.20;2201.60;;;;;;4993791;28;20066;-79
2022/01/13 09:31:36;;;;;;;95.05;49.80;;;0.20;2201.60;;;;;;4989722;28;20034;-79
2022/01/13 09:34:04;;;;;;;101.70;52.28;;;0.20;2201.60;;;;;;4992754;28;20045;-77
2022/01/13 09:36:31;;;;;;;96.32;45.85;;;0.30;2201.60;;;;;;4991945;28;20057;-77
2022/01/13 09:38:59;;;;;;;90.38;45.53;;;0.50;2201.60;;;;;;4993252;28;20034;-77
2022/01/13 09:41:30;;;;;;;95.07;50.65;;;0.40;2201.60;;;;;;4994551;28;20029;-76
2022/01/13 09:43:57;;;;;;;91.28;47.28;;;0.40;2201.60;;;;;;4994109;28;20389;-80
2022/01/13 09:46:26;;;;;;;83.03;44.35;;;0.60;2201.60;;;;;;4993106;28;20446;-76
2022/01/13 09:48:52;;;;;;;70.93;41.22;;;0.80;2201.60;;;;;;4993017;28;20025;-76
2022/01/13 09:51:18;;;;;;;93.93;39.35;;;25.60;2201.60;;;;;;4994212;28;20052;-77
2022/01/13 09:53:44;;;;;;;71.95;39.65;;;25.60;2201.60;;;;;;4993798;28;20488;-77
2022/01/13 09:56:11;;;;;;;73.63;37.58;;;25.70;2201.60;;;;;;5001388;28;20042;-76
2022/01/13 09:58:37;;;;;;;76.28;39.13;;;25.80;2201.60;;;;;;4987449;28;20042;-77
2022/01/13 10:01:03;;;;;;;68.07;37.40;;;25.60;2201.60;;;;;;5000386;28;20030;-77
2022/01/13 10:03:30;;;;;;;80.50;38.63;;;25.80;2201.60;;;;;;5002360;28;20030;-78
2022/01/13 10:05:59;;;;;;;70.88;39.92;;;25.70;2201.60;;;;;;4996088;28;20461;-78
2022/01/13 10:08:46;;;;;;;69.65;37.25;;;26.00;2201.60;;;;;;5011342;28;20041;-78
2022/01/13 10:11:28;;;;;;;65.20;35.13;;;26.10;2201.60;;;;;;5000402;28;20034;-78
2022/01/13 10:16:23;;;;;;;66.82;37.63;;;26.00;2201.60;;;;;;5001750;28;20033;-78
2022/01/13 10:17:06;;;;;;;67.63;35.80;;;26.00;2201.60;;;;;;5010769;28;20037;-78
2022/01/13 10:19:42;;;;;;;74.60;36.60;;;26.20;2201.60;;;;;;4999367;28;20384;-78
2022/01/13 10:22:16;;;;;;;72.15;42.92;;;26.30;2201.60;;;;;;4998688;28;20511;-78
2022/01/13 10:24:45;;;;;;;69.70;38.42;;;26.30;2201.60;;;;;;5015049;28;20042;-78
2022/01/13 10:27:13;;;;;;;68.13;36.60;;;26.50;2201.60;;;;;;5005061;28;20038;-78
2022/01/13 10:29:40;;;;;;;56.70;31.70;;;51.40;2227.20;;;;;;5014947;28;20851;-78
2022/01/13 10:32:09;;;;;;;52.35;29.42;;;51.40;2227.20;;;;;;5015321;28;20432;-79
2022/01/13 10:34:38;;;;;;;64.82;35.67;;;51.40;2227.20;;;;;;5000939;28;20066;-79
2022/01/13 10:37:13;;;;;;;58.28;34.50;;;51.50;2227.20;;;;;;5016825;28;20034;-79
2022/01/13 10:39:51;;;;;;;51.55;29.45;;;51.60;2227.20;;;;;;5015122;28;20033;-79
2022/01/13 10:45:21;;;;;;;61.83;30.17;;;51.40;2227.20;;;;;;5004062;28;20037;-79
2022/01/13 10:47:55;;;;;;;55.05;29.88;;;51.40;2227.20;;;;;;5014563;28;20026;-81
2022/01/13 10:50:22;;;;;;;52.53;28.00;;;51.60;2227.20;;;;;;4999821;28;20050;-78
2022/01/13 10:52:51;;;;;;;54.92;31.48;;;51.80;2227.20;;;;;;5002024;28;20108;-80
2022/01/13 10:55:23;;;;;;;43.95;26.45;;;51.80;2227.20;;;;;;4995567;28;20038;-80
2022/01/13 10:57:51;;;;;;;48.88;24.73;;;51.70;2227.20;;;;;;5001500;28;20034;-78
2022/01/13 11:00:17;;;;;;;57.60;28.00;;;51.80;2227.20;;;;;;4985029;28;20388;-78
2022/01/13 11:02:58;;;;;;;50.10;26.40;;;51.90;2227.20;;;;;;4982700;28;20035;-78
2022/01/13 11:05:24;;;;;;;54.78;28.65;;;51.90;2227.20;;;;;;4997427;28;20103;-75
2022/01/13 11:07:50;;;;;;;51.10;27.23;;;51.90;2227.20;;;;;;4984687;28;20035;-77
2022/01/13 11:10:15;;;;;;;48.03;27.00;;;52.00;2227.20;;;;;;5014637;28;20393;-77
2022/01/13 11:12:44;;;;;;;47.65;28.45;;;51.80;2227.20;;;;;;4987091;28;20052;-76
2022/01/13 11:15:17;;;;;;;51.72;28.05;;;52.00;2227.20;;;;;;5009595;28;20033;-75
2022/01/13 11:17:45;;;;;;;47.17;28.38;;;51.80;2227.20;;;;;;5005352;28;20033;-75
2022/01/13 11:20:22;;;;;;;68.40;34.95;;;52.00;2227.20;;;;;;4995316;28;20030;-75
2022/01/13 11:22:50;;;;;;;63.55;33.08;;;76.80;2227.20;;;;;;5011981;28;20089;-74
2022/01/13 11:25:18;;;;;;;67.50;36.95;;;76.90;2227.20;;;;;;4993414;28;20069;-75
2022/01/13 11:27:46;;;;;;;54.65;32.63;;;52.10;2227.20;;;;;;5006199;28;20031;-75
2022/01/13 11:30:21;;;;;;;52.30;28.48;;;76.80;2227.20;;;;;;4993537;28;20465;-75
2022/01/13 11:32:47;;;;;;;62.85;33.97;;;52.10;2227.20;;;;;;4994593;28;20038;-75
2022/01/13 11:35:19;;;;;;;53.20;31.13;;;52.10;2227.20;;;;;;5012885;28;20034;-75
2022/01/13 11:37:45;;;;;;;53.47;30.70;;;52.00;2227.20;;;;;;5011914;28;20084;-76
2022/01/13 11:40:26;;;;;;;57.00;33.15;;;52.00;2227.20;;;;;;4996441;28;20162;-76
2022/01/13 11:42:52;;;;;;;49.95;28.67;;;77.00;2227.20;;;;;;4987546;28;20030;-76
2022/01/13 11:45:20;;;;;;;56.72;32.28;;;77.00;2227.20;;;;;;5008354;28;20018;-76
2022/01/13 11:47:47;;;;;;;58.17;30.85;;;77.00;2227.20;;;;;;4996620;28;20041;-77
2022/01/13 11:50:23;;;;;;;55.15;32.85;;;76.90;2227.20;;;;;;4989496;28;20030;-76
2022/01/13 11:52:53;;;;;;;60.88;34.63;;;77.10;2227.20;;;;;;5011434;28;20034;-77
2022/01/13 11:55:34;;;;;;;71.72;37.92;;;77.10;2227.20;;;;;;4995076;28;20053;-79
2022/01/13 11:58:21;;;;;;;54.40;32.10;;;76.80;2227.20;;;;;;5012812;28;20042;-76
2022/01/13 12:00:50;;;;;;;54.22;30.05;;;76.90;2227.20;;;;;;5005531;28;20457;-77
2022/01/13 12:03:27;;;;;;;56.35;32.70;;;77.00;2227.20;;;;;;4995660;28;20042;-78
2022/01/13 12:05:54;;;;;;;62.58;32.85;;;77.10;2227.20;;;;;;4996178;28;20030;-81
2022/01/13 12:08:45;;;;;;;62.95;36.20;;;77.30;2227.20;;;;;;4993564;28;20034;-79
2022/01/13 12:11:37;;;;;;;61.72;31.27;;;77.50;2227.20;;;;;;4999043;28;20030;-78
2022/01/13 12:14:23;;;;;;;51.58;28.33;;;77.50;2227.20;;;;;;5013211;28;20022;-79
2022/01/13 12:17:11;;;;;;;55.47;33.23;;;77.40;2227.20;;;;;;5012791;28;20030;-80
2022/01/13 12:19:45;;;;;;;57.60;32.20;;;77.10;2227.20;;;;;;5013080;28;20061;-78
2022/01/13 12:22:25;;;;;;;56.03;32.45;;;77.50;2227.20;;;;;;4995186;28;20493;-78
2022/01/13 12:25:03;;;;;;;55.15;30.55;;;77.40;2227.20;;;;;;5008543;28;20120;-78
2022/01/13 12:27:34;;;;;;;56.70;31.02;;;77.30;2227.20;;;;;;5010210;28;20110;-78